createdAt,value
2023-04-18T00:00:25.850Z,10.19
2023-04-18T00:03:15.963Z,10.32
2023-04-18T00:05:47.952Z,10.26
2023-04-18T00:08:17.158Z,10.18
2023-04-18T00:10:44.598Z,10.13
2023-04-18T00:13:12.512Z,10.12
2023-04-18T00:15:44.021Z,10.09
2023-04-18T00:18:16.290Z,10.03
2023-04-18T00:20:43.954Z,10.05
2023-04-18T00:23:14.199Z,10.04
2023-04-18T00:25:41.503Z,10.15
2023-04-18T00:28:10.069Z,10.12
2023-04-18T00:30:38.745Z,10.08
2023-04-18T00:33:06.527Z,10.08
2023-04-18T00:35:33.878Z,10.09
2023-04-18T00:38:02.495Z,9.94
2023-04-18T00:40:31.887Z,10.04
2023-04-18T00:43:01.040Z,10.13
2023-04-18T00:45:28.457Z,10.01
2023-04-18T00:47:56.566Z,9.90
2023-04-18T00:50:24.536Z,9.98
2023-04-18T00:52:54.084Z,10.07
2023-04-18T00:55:23.086Z,10.00
2023-04-18T00:57:53.240Z,10.09
2023-04-18T01:00:21.116Z,9.87
2023-04-18T01:02:53.245Z,9.95
2023-04-18T01:05:21.797Z,9.75
2023-04-18T01:07:50.052Z,9.61
2023-04-18T01:10:18.089Z,9.78
2023-04-18T01:12:45.982Z,9.77
2023-04-18T01:15:13.574Z,9.71
2023-04-18T01:17:44.667Z,9.71
2023-04-18T01:20:17.861Z,9.68
2023-04-18T01:22:46.178Z,9.56
2023-04-18T01:25:13.625Z,9.77
2023-04-18T01:27:41.248Z,9.61
2023-04-18T01:30:09.225Z,9.63
2023-04-18T01:32:36.892Z,9.92
2023-04-18T01:35:06.144Z,9.72
2023-04-18T01:37:35.620Z,9.75
2023-04-18T01:40:09.743Z,9.83
2023-04-18T01:42:39.598Z,9.86
2023-04-18T01:45:08.129Z,9.83
2023-04-18T01:47:35.890Z,9.92
2023-04-18T01:50:04.106Z,9.90
2023-04-18T01:52:35.649Z,9.84
2023-04-18T01:55:03.876Z,9.73
2023-04-18T01:57:33.657Z,9.64
2023-04-18T02:00:07.162Z,9.56
2023-04-18T02:02:44.319Z,9.82
2023-04-18T02:05:11.884Z,9.73
2023-04-18T02:07:42.834Z,9.72
2023-04-18T02:10:11.379Z,9.80
2023-04-18T02:12:39.702Z,9.84
2023-04-18T02:15:07.499Z,9.89
2023-04-18T02:17:36.912Z,9.92
2023-04-18T02:20:08.282Z,9.91
2023-04-18T02:22:38.350Z,10.04
2023-04-18T02:25:06.038Z,10.03
2023-04-18T02:27:36.739Z,10.13
2023-04-18T02:30:06.425Z,9.83
2023-04-18T02:32:35.041Z,9.99
2023-04-18T02:35:02.450Z,9.98
2023-04-18T02:37:30.109Z,9.98
2023-04-18T02:39:57.488Z,9.93
2023-04-18T02:42:25.079Z,9.88
2023-04-18T02:44:52.545Z,10.00
2023-04-18T02:47:20.331Z,9.92
2023-04-18T02:49:47.703Z,9.96
2023-04-18T02:52:17.731Z,10.03
2023-04-18T02:54:45.259Z,9.99
2023-04-18T02:57:20.847Z,9.80
2023-04-18T03:00:09.556Z,9.90
2023-04-18T03:03:17.026Z,10.04
2023-04-18T03:06:03.258Z,10.03
2023-04-18T03:08:32.954Z,9.81
2023-04-18T03:11:00.534Z,9.94
2023-04-18T03:13:30.818Z,9.94
2023-04-18T03:15:58.968Z,9.99
2023-04-18T03:18:29.034Z,9.88
2023-04-18T03:20:59.180Z,9.84
2023-04-18T03:23:28.167Z,9.93
2023-04-18T03:25:55.690Z,9.88
2023-04-18T03:28:24.552Z,9.84
2023-04-18T03:30:51.889Z,9.89
2023-04-18T03:33:19.504Z,9.87
2023-04-18T03:35:49.858Z,9.93
2023-04-18T03:38:17.486Z,9.72
2023-04-18T03:40:45.465Z,9.93
2023-04-18T03:43:21.959Z,9.91
2023-04-18T03:45:50.222Z,10.00
2023-04-18T03:48:18.990Z,10.08
2023-04-18T03:50:47.553Z,9.97
2023-04-18T03:53:16.215Z,9.86
2023-04-18T03:55:43.783Z,9.85
2023-04-18T03:58:16.414Z,9.83
2023-04-18T04:00:47.727Z,10.08
2023-04-18T04:03:17.350Z,9.91
2023-04-18T04:05:46.776Z,9.87
2023-04-18T04:08:16.646Z,9.96
2023-04-18T04:10:46.556Z,9.83
2023-04-18T04:13:14.187Z,9.82
2023-04-18T04:15:42.289Z,9.65
2023-04-18T04:18:13.099Z,9.84
2023-04-18T04:20:48.081Z,9.89
2023-04-18T04:23:43.013Z,9.78
2023-04-18T04:26:23.382Z,9.92
2023-04-18T04:29:04.427Z,10.01
2023-04-18T04:31:34.383Z,9.80
2023-04-18T04:34:03.427Z,9.89
2023-04-18T04:36:33.506Z,9.91
2023-04-18T04:39:04.332Z,9.78
2023-04-18T04:41:49.910Z,9.83
2023-04-18T04:44:22.080Z,9.97
2023-04-18T04:46:49.966Z,10.14
2023-04-18T04:49:22.689Z,9.89
2023-04-18T04:51:49.954Z,9.92
2023-04-18T04:54:21.498Z,9.92
2023-04-18T04:56:49.083Z,10.04
2023-04-18T04:59:16.896Z,10.07
2023-04-18T05:01:46.865Z,9.89
2023-04-18T05:04:18.760Z,9.90
2023-04-18T05:06:46.558Z,9.92
2023-04-18T05:09:16.602Z,10.00
2023-04-18T05:11:43.972Z,9.90
2023-04-18T05:14:12.707Z,10.02
2023-04-18T05:16:40.500Z,9.93
2023-04-18T05:19:08.198Z,10.09
2023-04-18T05:21:35.864Z,10.01
2023-04-18T05:24:03.746Z,10.09
2023-04-18T05:26:33.395Z,10.17
2023-04-18T05:29:01.007Z,10.04
2023-04-18T05:31:28.401Z,10.12
2023-04-18T05:33:57.109Z,10.27
2023-04-18T05:36:24.504Z,10.23
2023-04-18T05:38:53.876Z,10.26
2023-04-18T05:41:21.489Z,10.38
2023-04-18T05:44:01.855Z,10.37
2023-04-18T05:46:34.151Z,10.34
2023-04-18T05:49:05.019Z,10.48
2023-04-18T05:51:33.470Z,10.57
2023-04-18T05:54:01.059Z,10.42
2023-04-18T05:56:28.396Z,10.46
2023-04-18T05:58:56.203Z,10.48
2023-04-18T06:01:24.013Z,10.68
2023-04-18T06:03:52.738Z,10.65
2023-04-18T06:06:20.567Z,10.63
2023-04-18T06:08:48.188Z,10.45
2023-04-18T06:11:15.929Z,10.44
2023-04-18T06:13:45.907Z,10.39
2023-04-18T06:16:13.729Z,10.43
2023-04-18T06:18:41.363Z,10.44
2023-04-18T06:21:10.970Z,10.39
2023-04-18T06:23:39.933Z,10.50
2023-04-18T06:26:07.554Z,10.19
2023-04-18T06:28:35.733Z,10.20
2023-04-18T06:31:04.129Z,10.22
2023-04-18T06:33:31.747Z,10.20
2023-04-18T06:35:59.769Z,10.21
2023-04-18T06:38:28.117Z,10.26
2023-04-18T06:40:55.453Z,10.33
2023-04-18T06:43:23.091Z,10.37
2023-04-18T06:45:51.701Z,10.17
2023-04-18T06:48:21.057Z,10.33
2023-04-18T06:50:49.076Z,10.55
2023-04-18T06:53:16.634Z,10.51
2023-04-18T06:55:44.033Z,10.65
2023-04-18T06:58:13.851Z,10.79
2023-04-18T07:00:41.487Z,11.01
2023-04-18T07:03:13.859Z,11.37
2023-04-18T07:05:41.635Z,11.03
2023-04-18T07:08:09.373Z,10.90
2023-04-18T07:10:38.066Z,10.89
2023-04-18T07:13:06.699Z,11.25
2023-04-18T07:15:38.037Z,11.06
2023-04-18T07:18:05.806Z,10.99
2023-04-18T07:20:33.298Z,11.37
2023-04-18T07:23:02.215Z,11.19
2023-04-18T07:25:29.510Z,11.31
2023-04-18T07:27:57.123Z,11.71
2023-04-18T07:30:25.151Z,11.69
2023-04-18T07:32:52.888Z,11.57
2023-04-18T07:35:20.833Z,11.50
2023-04-18T07:37:48.630Z,11.73
2023-04-18T07:40:16.835Z,11.89
2023-04-18T07:42:44.948Z,11.59
2023-04-18T07:45:15.525Z,11.98
2023-04-18T07:47:44.832Z,11.93
2023-04-18T07:50:13.600Z,12.11
2023-04-18T07:52:41.325Z,12.00
2023-04-18T07:55:09.868Z,12.11
2023-04-18T07:57:38.992Z,12.45
2023-04-18T08:00:09.523Z,12.68
2023-04-18T08:02:43.349Z,12.75
2023-04-18T08:05:11.082Z,12.16
2023-04-18T08:07:39.028Z,12.34
2023-04-18T08:10:06.956Z,11.95
2023-04-18T08:12:36.409Z,12.17
2023-04-18T08:15:04.603Z,12.09
2023-04-18T08:17:33.266Z,12.06
2023-04-18T08:20:01.101Z,11.83
2023-04-18T08:22:28.709Z,11.53
2023-04-18T08:25:04.340Z,11.76
2023-04-18T08:27:33.468Z,11.76
2023-04-18T08:30:01.379Z,11.69
2023-04-18T08:32:30.075Z,12.13
2023-04-18T08:34:57.346Z,12.17
2023-04-18T08:37:24.979Z,12.57
2023-04-18T08:39:52.272Z,13.26
2023-04-18T08:42:21.674Z,13.50
2023-04-18T08:44:52.753Z,14.36
2023-04-18T08:47:20.910Z,13.89
2023-04-18T08:49:48.951Z,13.78
2023-04-18T08:52:19.732Z,14.10
2023-04-18T08:54:47.324Z,13.55
2023-04-18T08:57:17.099Z,13.43
2023-04-18T08:59:49.627Z,13.79
2023-04-18T09:02:19.547Z,13.71
2023-04-18T09:04:49.496Z,14.44
2023-04-18T09:07:18.578Z,13.90
2023-04-18T09:09:48.894Z,14.48
2023-04-18T09:12:22.825Z,14.03
2023-04-18T09:14:56.594Z,13.85
2023-04-18T09:17:37.048Z,13.39
2023-04-18T09:20:13.130Z,13.81
2023-04-18T09:22:48.207Z,13.60
2023-04-18T09:25:29.561Z,14.17
2023-04-18T09:28:00.891Z,13.77
2023-04-18T09:30:39.733Z,14.27
2023-04-18T09:33:10.314Z,14.43
2023-04-18T09:35:38.483Z,14.92
2023-04-18T09:38:07.965Z,14.86
2023-04-18T09:40:36.219Z,15.39
2023-04-18T09:43:20.434Z,15.78
2023-04-18T09:45:51.091Z,15.77
2023-04-18T09:48:18.790Z,16.46
2023-04-18T09:51:14.921Z,16.34
2023-04-18T09:53:55.582Z,16.80
2023-04-18T09:56:29.613Z,17.27
2023-04-18T09:59:07.483Z,16.02
2023-04-18T10:01:35.440Z,15.48
2023-04-18T10:04:06.950Z,14.46
2023-04-18T10:06:38.574Z,14.46
2023-04-18T10:09:08.760Z,14.68
2023-04-18T10:11:36.624Z,14.70
2023-04-18T10:14:09.935Z,14.68
2023-04-18T10:16:38.890Z,14.53
2023-04-18T10:19:27.358Z,14.20
2023-04-18T10:21:56.133Z,14.58
2023-04-18T10:24:45.953Z,14.75
2023-04-18T10:27:13.483Z,15.12
2023-04-18T10:30:08.973Z,14.25
2023-04-18T10:32:36.560Z,13.95
2023-04-18T10:35:05.442Z,14.05
2023-04-18T10:37:34.362Z,14.39
2023-04-18T10:40:09.926Z,14.72
2023-04-18T10:42:47.052Z,14.13
2023-04-18T10:45:21.519Z,14.15
2023-04-18T10:47:50.090Z,13.60
2023-04-18T10:50:18.173Z,13.56
2023-04-18T10:52:47.073Z,13.34
2023-04-18T10:55:20.920Z,13.23
2023-04-18T10:57:51.894Z,12.97
2023-04-18T11:00:25.080Z,13.24
2023-04-18T11:02:57.707Z,13.30
2023-04-18T11:05:29.424Z,13.45
2023-04-18T11:07:56.819Z,13.22
2023-04-18T11:10:27.186Z,13.17
2023-04-18T11:12:56.699Z,13.48
2023-04-18T11:15:25.668Z,13.97
2023-04-18T11:18:05.212Z,13.85
2023-04-18T11:20:41.094Z,14.04
2023-04-18T11:23:25.100Z,14.25
2023-04-18T11:25:56.721Z,14.18
2023-04-18T11:28:27.282Z,14.24
2023-04-18T11:31:01.941Z,14.21
2023-04-18T11:33:29.891Z,14.12
2023-04-18T11:36:01.845Z,14.34
2023-04-18T11:38:34.037Z,14.33
2023-04-18T11:41:03.316Z,13.82
2023-04-18T11:43:30.770Z,13.84
2023-04-18T11:46:00.388Z,14.24
2023-04-18T11:48:38.450Z,14.30
2023-04-18T11:51:10.902Z,14.41
2023-04-18T11:53:39.683Z,14.56
2023-04-18T11:56:07.641Z,14.74
2023-04-18T11:58:36.535Z,14.92
2023-04-18T12:01:36.016Z,15.09
2023-04-18T12:18:34.405Z,14.40
2023-04-18T12:21:06.048Z,14.74
2023-04-18T12:23:35.766Z,14.90
2023-04-18T12:26:05.967Z,15.08
2023-04-18T12:28:35.565Z,15.40
2023-04-18T12:31:05.667Z,15.48
2023-04-18T12:33:38.754Z,15.49
2023-04-18T12:36:08.606Z,15.62
2023-04-18T12:38:36.283Z,15.72
2023-04-18T12:41:04.175Z,15.55
2023-04-18T12:43:31.725Z,15.61
2023-04-18T12:46:00.422Z,15.86
2023-04-18T12:48:28.182Z,15.95
2023-04-18T12:50:55.915Z,16.17
2023-04-18T12:53:23.279Z,16.51
2023-04-18T12:55:54.006Z,16.68
2023-04-18T12:58:21.811Z,16.59
2023-04-18T13:00:49.772Z,16.81
2023-04-18T13:03:18.516Z,16.76
2023-04-18T13:05:46.260Z,16.61
2023-04-18T13:08:17.668Z,16.42
2023-04-18T13:10:47.828Z,16.38
2023-04-18T13:13:15.322Z,16.55
2023-04-18T13:15:43.089Z,16.29
2023-04-18T13:18:10.508Z,16.24
2023-04-18T13:20:38.521Z,16.21
2023-04-18T13:23:08.177Z,16.15
2023-04-18T13:25:36.628Z,16.08
2023-04-18T13:28:04.695Z,16.02
2023-04-18T13:30:32.520Z,15.88
2023-04-18T13:33:00.140Z,15.67
2023-04-18T13:35:28.570Z,15.71
2023-04-18T13:37:56.878Z,15.62
2023-04-18T13:40:29.421Z,15.85
2023-04-18T13:42:58.179Z,15.72
2023-04-18T13:45:25.895Z,16.13
2023-04-18T13:47:53.421Z,16.43
2023-04-18T13:50:23.336Z,16.63
2023-04-18T13:52:54.949Z,16.35
2023-04-18T13:55:22.967Z,16.24
2023-04-18T13:57:50.377Z,16.20
2023-04-18T14:00:19.516Z,16.25
2023-04-18T14:02:47.140Z,16.09
2023-04-18T14:05:14.992Z,15.59
2023-04-18T14:07:42.321Z,15.65
2023-04-18T14:10:10.596Z,15.52
2023-04-18T14:12:38.247Z,15.40
2023-04-18T14:15:06.481Z,15.21
2023-04-18T14:17:34.267Z,15.01
2023-04-18T14:20:02.551Z,14.85
2023-04-18T14:22:35.007Z,15.00
2023-04-18T14:25:03.043Z,15.00
2023-04-18T14:27:30.357Z,14.79
2023-04-18T14:29:58.054Z,14.74
2023-04-18T14:32:25.536Z,14.77
2023-04-18T14:34:53.646Z,14.82
2023-04-18T14:37:21.396Z,14.97
2023-04-18T14:39:50.766Z,15.23
2023-04-18T14:42:18.656Z,15.32
2023-04-18T14:44:46.541Z,15.36
2023-04-18T14:47:15.405Z,15.60
2023-04-18T14:49:43.052Z,15.70
2023-04-18T14:52:10.476Z,15.65
2023-04-18T14:54:38.147Z,15.55
2023-04-18T14:57:05.461Z,15.63
2023-04-18T14:59:33.176Z,15.53
2023-04-18T15:02:00.699Z,15.48
2023-04-18T15:04:28.602Z,15.31
2023-04-18T15:06:56.529Z,15.52
2023-04-18T15:09:24.514Z,15.50
2023-04-18T15:11:54.519Z,15.76
2023-04-18T15:14:23.630Z,15.95
2023-04-18T15:16:51.883Z,15.94
2023-04-18T15:19:19.646Z,15.95
2023-04-18T15:21:47.023Z,15.82
2023-04-18T15:24:16.443Z,15.57
2023-04-18T15:26:45.741Z,15.46
2023-04-18T15:29:14.156Z,15.66
2023-04-18T15:31:41.668Z,16.15
2023-04-18T15:34:11.870Z,15.89
2023-04-18T15:36:39.378Z,16.05
2023-04-18T15:39:07.617Z,16.31
2023-04-18T15:41:37.363Z,16.26
2023-04-18T15:44:08.140Z,16.45
2023-04-18T15:46:36.921Z,16.71
2023-04-18T15:49:04.809Z,16.90
2023-04-18T15:51:32.173Z,16.65
2023-04-18T15:54:01.062Z,16.55
2023-04-18T15:56:33.079Z,16.39
2023-04-18T15:59:02.657Z,16.28
2023-04-18T16:01:30.569Z,15.93
2023-04-18T16:04:01.764Z,15.91
2023-04-18T16:06:31.417Z,15.43
2023-04-18T16:09:01.563Z,14.94
2023-04-18T16:11:30.635Z,14.86
2023-04-18T16:13:59.119Z,14.82
2023-04-18T16:16:28.473Z,14.87
2023-04-18T16:18:58.464Z,14.57
2023-04-18T16:21:26.419Z,14.25
2023-04-18T16:23:54.261Z,14.43
2023-04-18T16:26:21.755Z,14.13
2023-04-18T16:28:49.474Z,14.17
2023-04-18T16:31:17.253Z,13.90
2023-04-18T16:33:45.561Z,13.74
2023-04-18T16:36:14.038Z,13.85
2023-04-18T16:38:41.715Z,13.82
2023-04-18T16:41:10.019Z,13.77
2023-04-18T16:43:38.194Z,13.61
2023-04-18T16:46:05.838Z,13.48
2023-04-18T16:48:33.658Z,13.48
2023-04-18T16:51:02.594Z,13.50
2023-04-18T16:53:31.703Z,13.43
2023-04-18T16:56:03.387Z,13.44
2023-04-18T16:58:35.577Z,13.41
2023-04-18T17:01:03.513Z,13.33
2023-04-18T17:03:31.678Z,13.38
2023-04-18T17:06:01.607Z,13.35
2023-04-18T17:08:29.490Z,13.25
2023-04-18T17:10:56.837Z,13.26
2023-04-18T17:13:27.169Z,13.19
2023-04-18T17:15:56.439Z,13.20
2023-04-18T17:18:29.604Z,13.17
2023-04-18T17:21:00.887Z,13.12
2023-04-18T17:23:32.889Z,13.10
2023-04-18T17:26:02.557Z,13.00
2023-04-18T17:28:30.661Z,12.94
2023-04-18T17:31:01.531Z,12.91
2023-04-18T17:33:29.181Z,12.89
2023-04-18T17:35:59.255Z,12.85
2023-04-18T17:38:28.578Z,12.77
2023-04-18T17:40:59.781Z,12.59
2023-04-18T17:43:27.642Z,12.72
2023-04-18T17:45:56.164Z,12.68
2023-04-18T17:48:27.629Z,12.59
2023-04-18T17:50:56.845Z,12.38
2023-04-18T17:53:24.652Z,12.55
2023-04-18T17:55:58.992Z,12.52
2023-04-18T17:58:29.298Z,12.43
2023-04-18T18:00:56.969Z,12.33
2023-04-18T18:03:25.591Z,12.45
2023-04-18T18:05:55.701Z,12.37
2023-04-18T18:08:26.532Z,12.26
2023-04-18T18:10:54.578Z,12.46
2023-04-18T18:13:32.785Z,12.43
2023-04-18T18:16:06.797Z,12.39
2023-04-18T18:18:56.924Z,12.33
2023-04-18T18:21:31.280Z,12.30
2023-04-18T18:24:04.447Z,12.28
2023-04-18T18:26:36.270Z,12.23
2023-04-18T18:29:24.066Z,12.28
2023-04-18T18:31:58.178Z,12.12
2023-04-18T18:34:37.069Z,12.25
2023-04-18T18:37:18.765Z,12.22
2023-04-18T18:39:50.426Z,12.15
2023-04-18T18:42:23.660Z,12.14
2023-04-18T18:44:54.220Z,12.13
2023-04-18T18:47:27.924Z,12.10
2023-04-18T18:50:22.932Z,12.23
2023-04-18T18:52:57.727Z,12.25
2023-04-18T18:55:39.760Z,12.14
2023-04-18T18:58:22.999Z,12.21
2023-04-18T19:00:54.090Z,12.22
2023-04-18T19:03:48.682Z,12.25
2023-04-18T19:06:18.559Z,12.13
2023-04-18T19:09:03.630Z,11.98
2023-04-18T19:12:04.635Z,12.11
2023-04-18T19:14:46.982Z,12.04
2023-04-18T19:17:24.919Z,12.06
2023-04-18T19:20:00.387Z,12.00
2023-04-18T19:26:23.256Z,11.95
2023-04-18T19:28:52.933Z,11.92
2023-04-18T19:31:56.811Z,11.85
2023-04-18T19:34:30.701Z,11.74
2023-04-18T19:37:01.946Z,11.80
2023-04-18T19:39:32.014Z,11.82
2023-04-18T19:42:03.104Z,11.72
2023-04-18T19:47:34.132Z,11.70
2023-04-18T19:50:25.884Z,11.68
2023-04-18T19:52:53.657Z,11.69
2023-04-18T19:55:22.219Z,11.65
2023-04-18T19:58:00.904Z,11.82
2023-04-18T20:00:57.887Z,11.88
2023-04-18T20:03:38.872Z,11.79
2023-04-18T20:06:35.485Z,11.65
2023-04-18T20:09:18.498Z,11.68
2023-04-18T20:11:50.699Z,11.68
2023-04-18T20:14:18.293Z,11.71
2023-04-18T20:16:50.754Z,11.70
2023-04-18T20:19:44.626Z,11.79
2023-04-18T20:22:15.236Z,11.69
2023-04-18T20:24:49.636Z,11.75
2023-04-18T20:27:20.810Z,11.72
2023-04-18T20:29:51.604Z,11.73
2023-04-18T20:32:26.060Z,11.63
2023-04-18T20:34:53.716Z,11.73
2023-04-18T20:37:29.400Z,11.59
2023-04-18T20:40:00.118Z,11.50
2023-04-18T20:42:33.213Z,11.59
2023-04-18T20:45:17.604Z,11.68
2023-04-18T20:48:13.121Z,11.63
2023-04-18T20:51:13.271Z,11.58
2023-04-18T20:53:43.772Z,11.55
2023-04-18T20:56:18.133Z,11.50
2023-04-18T20:58:56.158Z,11.48
2023-04-18T21:01:38.292Z,11.36
2023-04-18T21:04:11.721Z,11.42
2023-04-18T21:06:40.710Z,11.43
2023-04-18T21:09:13.486Z,11.43
2023-04-18T21:11:43.238Z,11.43
2023-04-18T21:14:11.097Z,11.50
2023-04-18T21:16:44.616Z,11.63
2023-04-18T21:19:20.831Z,11.59
2023-04-18T21:21:51.637Z,11.59
2023-04-18T21:24:26.475Z,11.60
2023-04-18T21:26:57.987Z,11.58
2023-04-18T21:29:25.722Z,11.44
2023-04-18T21:31:53.351Z,11.53
2023-04-18T21:34:23.257Z,11.41
2023-04-18T21:36:58.978Z,11.21
2023-04-18T21:39:33.696Z,11.50
2023-04-18T21:42:07.079Z,11.49
2023-04-18T21:44:38.077Z,11.45
2023-04-18T21:47:07.430Z,11.44
2023-04-18T21:49:38.104Z,11.45
2023-04-18T21:52:18.169Z,11.38
2023-04-18T21:54:56.665Z,11.22
2023-04-18T21:57:25.486Z,11.31
2023-04-18T22:00:00.542Z,11.27
2023-04-18T22:03:32.584Z,11.24
2023-04-18T22:06:47.927Z,11.22
2023-04-18T22:09:58.727Z,11.27
2023-04-18T22:12:34.614Z,11.14
2023-04-18T22:15:14.222Z,11.06
2023-04-18T22:18:03.454Z,11.08
2023-04-18T22:20:58.313Z,11.00
2023-04-18T22:23:34.338Z,10.95
2023-04-18T22:26:11.442Z,10.94
2023-04-18T22:28:40.244Z,10.81
2023-04-18T22:31:09.221Z,10.63
2023-04-18T22:33:36.590Z,10.81
2023-04-18T22:36:06.642Z,10.81
2023-04-18T22:38:34.124Z,10.79
2023-04-18T22:41:02.851Z,10.91
2023-04-18T22:43:36.353Z,10.89
2023-04-18T22:46:06.771Z,10.93
2023-04-18T22:48:52.586Z,10.93
2023-04-18T22:51:21.344Z,10.89
2023-04-18T22:53:48.911Z,10.70
2023-04-18T22:56:29.003Z,10.79
2023-04-18T22:58:56.640Z,10.79
2023-04-18T23:01:25.389Z,10.64
2023-04-18T23:03:53.263Z,10.71
2023-04-18T23:06:22.264Z,10.67
2023-04-18T23:08:50.262Z,10.66
2023-04-18T23:11:19.851Z,10.62
2023-04-18T23:13:48.068Z,10.60
2023-04-18T23:16:16.074Z,10.55
2023-04-18T23:18:44.677Z,10.59
2023-04-18T23:21:35.047Z,10.58
2023-04-18T23:24:05.404Z,10.51
2023-04-18T23:26:36.275Z,10.48
2023-04-18T23:29:05.042Z,10.51
2023-04-18T23:31:42.224Z,10.51
2023-04-18T23:34:11.037Z,10.42
2023-04-18T23:36:40.586Z,10.42
2023-04-18T23:39:11.376Z,10.36
2023-04-18T23:41:41.072Z,10.41
2023-04-18T23:44:08.624Z,10.44
2023-04-18T23:46:36.727Z,10.26
2023-04-18T23:49:05.694Z,10.23
2023-04-18T23:51:33.484Z,10.28
2023-04-18T23:54:01.540Z,10.27
2023-04-18T23:56:29.856Z,10.27
2023-04-18T23:58:57.572Z,10.14
